Time;durP1;ratioP1;P1;durP2;ratioP2;P2;SDS_P1;SDS_P2;PMS_P1;PMS_P2;Temp;Humidity;BMP_temperature;BMP_pressure;BME280_temperature;BME280_humidity;BME280_pressure;Samples;Min_cycle;Max_cycle;Signal;HPM_P1;HPM_P2
2022/06/28 00:01:21;;;;;;;13.83;8.83;;;15.00;99.90;;;;;;5116159;28;20051;-69
2022/06/28 00:03:47;;;;;;;12.17;9.87;;;15.00;99.90;;;;;;5097697;28;20483;-69
2022/06/28 00:06:13;;;;;;;13.77;8.70;;;15.00;99.90;;;;;;5116093;28;20145;-69
2022/06/28 00:08:39;;;;;;;13.10;9.20;;;15.00;99.90;;;;;;5115833;28;20105;-69
2022/06/28 00:11:04;;;;;;;13.23;9.47;;;14.90;99.90;;;;;;5097838;28;20376;-69
2022/06/28 00:13:30;;;;;;;10.10;8.30;;;14.90;99.90;;;;;;5115838;28;20364;-69
2022/06/28 00:16:05;;;;;;;12.50;8.93;;;14.90;99.90;;;;;;5115868;28;20043;-70
2022/06/28 00:18:33;;;;;;;10.57;8.55;;;14.90;99.90;;;;;;5115896;28;20467;-69
2022/06/28 00:21:01;;;;;;;12.37;8.37;;;;;;;;;;5115765;28;20478;-70
2022/06/28 00:23:28;;;;;;;10.47;8.40;;;14.80;99.90;;;;;;5097702;28;20693;-69
2022/06/28 00:25:54;;;;;;;13.63;8.23;;;14.80;99.90;;;;;;5097508;28;20057;-70
2022/06/28 00:28:20;;;;;;;11.77;7.83;;;14.80;99.90;;;;;;5097646;28;20368;-70
2022/06/28 00:30:46;;;;;;;9.13;7.83;;;14.80;99.90;;;;;;5097470;28;20048;-70
2022/06/28 00:33:12;;;;;;;15.00;8.37;;;14.80;99.90;;;;;;5097264;28;20048;-70
2022/06/28 00:35:39;;;;;;;10.93;8.00;;;14.70;99.90;;;;;;5115339;28;20054;-70
2022/06/28 00:38:05;;;;;;;12.27;8.27;;;14.70;99.90;;;;;;5097581;28;20307;-69
2022/06/28 00:40:41;;;;;;;10.63;8.57;;;14.70;99.90;;;;;;5115402;28;20277;-69
2022/06/28 00:43:07;;;;;;;9.40;8.37;;;14.70;99.90;;;;;;5115544;28;20075;-69
2022/06/28 00:45:33;;;;;;;12.60;7.80;;;14.70;99.90;;;;;;5115425;28;20343;-69
2022/06/28 00:47:58;;;;;;;9.37;7.97;;;14.70;99.90;;;;;;5114863;28;20050;-69
2022/06/28 00:50:26;;;;;;;13.03;7.87;;;14.70;99.90;;;;;;5097408;28;20483;-69
2022/06/28 00:53:06;;;;;;;9.57;7.67;;;14.70;99.90;;;;;;5114875;28;20122;-70
2022/06/28 00:55:33;;;;;;;9.27;7.67;;;14.70;99.90;;;;;;5114906;28;20737;-70
2022/06/28 00:58:00;;;;;;;12.97;7.77;;;14.70;99.90;;;;;;5114797;28;20327;-69
2022/06/28 01:00:28;;;;;;;13.60;8.57;;;14.70;99.90;;;;;;5114955;28;20771;-69
2022/06/28 01:02:54;;;;;;;12.13;7.70;;;14.60;99.90;;;;;;5114690;28;20292;-69
2022/06/28 01:05:20;;;;;;;10.50;7.33;;;14.60;99.90;;;;;;5114919;28;20750;-69
2022/06/28 01:07:47;;;;;;;10.63;8.37;;;14.60;99.90;;;;;;5114678;28;20044;-69
2022/06/28 01:10:13;;;;;;;11.27;7.83;;;;;;;;;;5096745;28;20293;-69
2022/06/28 01:12:38;;;;;;;8.87;6.57;;;14.60;99.90;;;;;;5114525;28;20317;-70
2022/06/28 01:15:05;;;;;;;10.87;7.43;;;14.60;99.90;;;;;;5115011;28;20749;-69
2022/06/28 01:17:31;;;;;;;10.60;7.43;;;14.60;99.90;;;;;;5096871;28;20058;-69
2022/06/28 01:19:57;;;;;;;11.00;7.83;;;14.50;99.90;;;;;;5114420;28;20270;-69
2022/06/28 01:22:27;;;;;;;9.83;6.93;;;14.60;99.90;;;;;;5114513;28;20763;-69
2022/06/28 01:24:53;;;;;;;13.77;7.60;;;14.60;99.90;;;;;;5114014;28;20043;-69
2022/06/28 01:27:19;;;;;;;10.77;6.60;;;14.50;99.90;;;;;;5114351;28;20301;-69
2022/06/28 01:29:45;;;;;;;10.80;7.13;;;14.50;99.90;;;;;;5114268;28;20040;-69
2022/06/28 01:32:14;;;;;;;9.43;6.43;;;14.50;99.90;;;;;;5114526;28;20305;-69
2022/06/28 01:34:40;;;;;;;10.13;6.93;;;14.50;99.90;;;;;;5114207;28;20285;-71
2022/06/28 01:37:07;;;;;;;10.17;6.80;;;14.50;99.90;;;;;;5114234;28;20394;-69
2022/06/28 01:39:33;;;;;;;10.90;6.30;;;14.40;99.90;;;;;;5114430;28;20044;-69
2022/06/28 01:41:59;;;;;;;12.30;6.30;;;14.40;99.90;;;;;;5114091;28;20285;-69
2022/06/28 01:44:25;;;;;;;12.27;6.27;;;14.40;99.90;;;;;;5113830;28;20126;-69
2022/06/28 01:46:51;;;;;;;9.53;6.60;;;14.30;99.90;;;;;;5113917;28;20415;-69
2022/06/28 01:49:17;;;;;;;9.93;6.40;;;14.30;99.90;;;;;;5114082;28;20296;-69
2022/06/28 01:51:43;;;;;;;9.93;6.27;;;14.30;99.90;;;;;;5113807;28;20051;-69
2022/06/28 01:54:08;;;;;;;10.47;6.50;;;14.30;99.90;;;;;;5113697;28;20048;-69
2022/06/28 01:56:35;;;;;;;11.20;6.30;;;14.30;99.90;;;;;;5113691;28;20043;-69
2022/06/28 01:59:01;;;;;;;10.73;5.80;;;;;;;;;;5095758;28;20517;-69
2022/06/28 02:01:27;;;;;;;9.50;5.90;;;14.10;99.90;;;;;;5113833;28;20281;-69
2022/06/28 02:03:53;;;;;;;11.00;5.50;;;14.20;99.90;;;;;;5113663;28;20342;-69
2022/06/28 02:06:19;;;;;;;11.10;6.10;;;14.20;99.90;;;;;;5113904;28;20047;-69
2022/06/28 02:08:45;;;;;;;8.40;5.23;;;14.20;99.90;;;;;;5078805;28;20334;-70
2022/06/28 02:11:11;;;;;;;10.57;5.40;;;;;;;;;;5113740;28;20047;-69
2022/06/28 02:13:37;;;;;;;10.83;5.50;;;14.10;99.90;;;;;;5095596;28;20274;-69
2022/06/28 02:16:03;;;;;;;8.63;5.20;;;14.20;99.90;;;;;;5112606;28;20319;-69
2022/06/28 02:18:30;;;;;;;11.00;5.27;;;14.10;99.90;;;;;;5113693;28;20039;-69
2022/06/28 02:20:57;;;;;;;9.23;5.73;;;14.10;99.90;;;;;;5095549;28;20087;-69
2022/06/28 02:23:23;;;;;;;10.00;5.00;;;14.10;99.90;;;;;;5095709;28;20286;-69
2022/06/28 02:25:49;;;;;;;10.50;5.30;;;14.00;99.90;;;;;;5113384;28;20289;-70
2022/06/28 02:28:14;;;;;;;10.03;4.87;;;14.00;99.90;;;;;;5113477;28;20090;-70
2022/06/28 02:30:40;;;;;;;11.93;5.50;;;14.00;99.90;;;;;;5113497;28;20050;-70
2022/06/28 02:33:06;;;;;;;12.50;5.63;;;14.00;99.90;;;;;;5095082;28;20135;-70
2022/06/28 02:41:11;;;;;;;9.90;4.90;;;13.90;99.90;;;;;;5117660;28;20209;-69
2022/06/28 02:43:37;;;;;;;7.80;4.80;;;13.90;99.90;;;;;;5117822;28;20288;-69
2022/06/28 02:46:02;;;;;;;8.80;5.23;;;13.90;99.90;;;;;;5099476;28;20047;-69
2022/06/28 02:48:28;;;;;;;14.97;6.10;;;13.90;99.90;;;;;;5117598;28;20062;-69
2022/06/28 02:50:54;;;;;;;13.33;5.23;;;13.90;99.90;;;;;;5117429;28;20083;-69
2022/06/28 02:53:19;;;;;;;10.70;5.00;;;13.90;99.90;;;;;;5098909;28;20048;-69
2022/06/28 02:55:45;;;;;;;9.80;5.00;;;13.90;99.90;;;;;;5117063;28;20130;-69
2022/06/28 02:58:11;;;;;;;9.37;4.50;;;13.90;99.90;;;;;;5099203;28;20056;-69
2022/06/28 03:00:36;;;;;;;11.57;5.70;;;13.90;99.90;;;;;;5117263;28;20085;-69
2022/06/28 03:03:02;;;;;;;9.23;4.73;;;13.80;99.90;;;;;;5117058;28;20157;-69
2022/06/28 03:05:28;;;;;;;10.87;4.83;;;13.70;99.90;;;;;;5117542;28;20040;-69
2022/06/28 03:07:53;;;;;;;11.23;5.17;;;13.70;99.90;;;;;;5117078;28;20082;-70
2022/06/28 03:10:19;;;;;;;10.43;5.43;;;13.70;99.90;;;;;;5117210;28;20150;-69
2022/06/28 03:12:45;;;;;;;13.57;5.10;;;13.70;99.90;;;;;;5117207;28;20044;-69
2022/06/28 03:15:13;;;;;;;9.37;4.30;;;;;;;;;;5098671;28;20048;-69
2022/06/28 03:17:40;;;;;;;11.70;4.70;;;13.70;99.90;;;;;;5116999;28;20277;-69
2022/06/28 03:20:06;;;;;;;11.50;4.53;;;13.70;99.90;;;;;;5098125;28;20333;-69
2022/06/28 03:22:32;;;;;;;11.80;4.40;;;13.70;99.90;;;;;;5117009;28;20291;-69
2022/06/28 03:24:57;;;;;;;10.77;5.00;;;13.70;99.90;;;;;;5116673;28;20285;-70
2022/06/28 03:27:23;;;;;;;9.67;4.63;;;13.60;99.90;;;;;;5098808;28;20040;-69
2022/06/28 03:29:51;;;;;;;7.80;4.30;;;13.60;99.90;;;;;;5116784;28;20046;-69
2022/06/28 03:32:17;;;;;;;11.53;4.93;;;13.60;99.90;;;;;;5116822;28;20048;-69
2022/06/28 03:34:43;;;;;;;10.20;4.23;;;13.60;99.90;;;;;;5116753;28;20285;-69
2022/06/28 03:37:09;;;;;;;9.87;4.90;;;13.60;99.90;;;;;;5098125;28;20289;-69
2022/06/28 03:39:34;;;;;;;8.40;4.73;;;13.70;99.90;;;;;;5116584;28;20050;-69
2022/06/28 03:42:00;;;;;;;8.93;4.77;;;13.70;99.90;;;;;;5116056;28;20120;-69
2022/06/28 03:44:26;;;;;;;11.30;4.50;;;13.60;99.90;;;;;;5116515;28;20047;-69
2022/06/28 03:46:51;;;;;;;9.50;4.70;;;13.60;99.90;;;;;;5098036;28;20376;-69
2022/06/28 03:49:17;;;;;;;10.33;3.93;;;13.70;99.90;;;;;;5116040;28;20055;-69
2022/06/28 03:51:43;;;;;;;6.00;3.63;;;13.70;99.90;;;;;;5116283;28;20054;-69
2022/06/28 03:54:08;;;;;;;10.97;4.40;;;13.70;99.90;;;;;;5097617;28;20096;-69
2022/06/28 03:56:34;;;;;;;10.20;4.50;;;13.70;99.90;;;;;;5116215;28;20050;-69
2022/06/28 03:59:00;;;;;;;12.50;4.10;;;13.70;99.90;;;;;;5097841;28;20079;-69
2022/06/28 04:01:26;;;;;;;9.10;3.70;;;13.70;99.90;;;;;;5116065;28;20035;-69
2022/06/28 04:03:51;;;;;;;9.17;3.87;;;13.70;99.90;;;;;;5116263;28;20094;-69
2022/06/28 04:06:17;;;;;;;13.10;4.67;;;13.80;99.90;;;;;;5115980;28;20068;-69
2022/06/28 04:08:43;;;;;;;12.03;3.77;;;13.80;99.90;;;;;;5115919;28;20504;-69
2022/06/28 04:11:14;;;;;;;10.43;3.87;;;13.80;99.90;;;;;;5115973;28;20055;-69
2022/06/28 04:13:45;;;;;;;9.70;4.10;;;13.80;99.90;;;;;;5116011;28;20054;-69
2022/06/28 04:16:11;;;;;;;10.47;4.30;;;13.90;99.90;;;;;;5097750;28;20320;-69
2022/06/28 04:18:37;;;;;;;9.97;4.30;;;13.90;99.90;;;;;;5115987;28;20278;-69
2022/06/28 04:21:03;;;;;;;8.37;4.00;;;13.90;99.90;;;;;;5115653;28;20048;-70
2022/06/28 04:23:29;;;;;;;10.70;4.20;;;13.90;99.90;;;;;;5115755;28;20138;-69
2022/06/28 04:25:55;;;;;;;7.30;4.20;;;13.90;99.90;;;;;;5115685;28;20331;-69
2022/06/28 04:28:20;;;;;;;8.87;4.10;;;14.00;99.90;;;;;;5115454;28;20519;-69
2022/06/28 04:30:46;;;;;;;9.50;4.10;;;14.10;99.90;;;;;;5115608;28;20468;-69
2022/06/28 04:33:12;;;;;;;8.67;3.73;;;14.10;99.90;;;;;;5114870;28;20046;-69
2022/06/28 04:35:38;;;;;;;10.03;3.50;;;14.10;99.90;;;;;;5115555;28;20051;-69
2022/06/28 04:38:03;;;;;;;9.03;3.70;;;14.20;99.90;;;;;;5115284;28;20457;-70
2022/06/28 04:40:29;;;;;;;9.03;4.50;;;14.30;99.90;;;;;;5115325;28;20130;-69
2022/06/28 04:42:55;;;;;;;10.30;3.60;;;14.30;99.90;;;;;;5115049;28;20071;-69
2022/06/28 04:45:21;;;;;;;8.03;3.40;;;14.40;99.90;;;;;;5115132;28;20071;-69
2022/06/28 04:47:47;;;;;;;11.80;4.07;;;14.50;99.90;;;;;;5115240;28;20745;-69
2022/06/28 04:50:13;;;;;;;7.87;3.30;;;14.60;99.90;;;;;;5096847;28;20055;-70
2022/06/28 04:52:39;;;;;;;10.20;3.60;;;14.70;99.90;;;;;;5115078;28;20302;-69
2022/06/28 04:55:06;;;;;;;13.47;4.03;;;14.80;99.90;;;;;;5114932;28;20122;-70
2022/06/28 04:57:31;;;;;;;9.97;4.40;;;15.00;99.90;;;;;;5114550;28;20051;-69
2022/06/28 04:59:57;;;;;;;12.40;3.90;;;15.10;99.90;;;;;;5114695;28;20327;-69
2022/06/28 05:02:22;;;;;;;12.73;4.03;;;15.20;99.90;;;;;;5115064;28;20491;-70
2022/06/28 05:04:48;;;;;;;12.37;3.97;;;15.30;99.90;;;;;;5114923;28;20054;-70
2022/06/28 05:07:14;;;;;;;10.03;4.13;;;15.40;99.90;;;;;;5114640;28;20055;-69
2022/06/28 05:09:40;;;;;;;7.67;3.90;;;15.50;99.90;;;;;;5096915;28;20103;-70
2022/06/28 05:12:07;;;;;;;9.50;4.30;;;15.50;99.90;;;;;;5114512;28;20079;-70
2022/06/28 05:14:33;;;;;;;8.23;3.50;;;15.60;99.90;;;;;;5114500;28;20362;-69
2022/06/28 05:16:59;;;;;;;13.17;4.07;;;15.70;99.90;;;;;;5114691;28;20317;-70
2022/06/28 05:19:26;;;;;;;10.87;4.13;;;15.80;99.90;;;;;;5114411;28;20273;-70
2022/06/28 05:21:52;;;;;;;10.30;3.77;;;15.90;99.90;;;;;;5114563;28;20630;-69
2022/06/28 05:24:17;;;;;;;8.17;3.60;;;16.10;99.90;;;;;;5114039;28;20047;-70
2022/06/28 05:26:44;;;;;;;10.40;3.90;;;16.20;99.90;;;;;;5114794;28;20062;-70
2022/06/28 05:29:09;;;;;;;10.27;3.43;;;16.30;99.90;;;;;;5114300;28;20050;-70
2022/06/28 05:31:38;;;;;;;10.80;3.50;;;16.40;99.90;;;;;;5114395;28;20293;-70
2022/06/28 05:34:04;;;;;;;9.87;3.10;;;16.60;99.90;;;;;;5114381;28;20047;-70
2022/06/28 05:36:30;;;;;;;8.67;3.37;;;16.70;99.90;;;;;;5096212;28;20468;-70
2022/06/28 05:38:56;;;;;;;10.33;3.60;;;16.80;99.90;;;;;;5096489;28;20052;-70
2022/06/28 05:41:22;;;;;;;10.20;3.77;;;17.00;99.90;;;;;;5114088;28;20046;-70
2022/06/28 05:43:48;;;;;;;12.70;3.50;;;17.10;99.90;;;;;;5114325;28;20043;-70
2022/06/28 05:46:14;;;;;;;7.43;3.30;;;17.20;99.90;;;;;;5096113;28;20054;-70
2022/06/28 05:48:40;;;;;;;9.33;3.63;;;17.40;99.90;;;;;;5113792;28;20055;-70
2022/06/28 05:51:06;;;;;;;11.70;3.70;;;17.70;99.90;;;;;;5113959;28;20058;-70
2022/06/28 05:53:31;;;;;;;10.30;3.50;;;18.10;99.90;;;;;;5114021;28;20094;-70
2022/06/28 05:55:58;;;;;;;7.70;3.10;;;19.50;99.90;;;;;;5114096;28;20079;-70
2022/06/28 05:58:23;;;;;;;10.03;3.20;;;20.80;99.90;;;;;;5095798;28;20052;-70
2022/06/28 06:00:49;;;;;;;8.53;2.50;;;22.00;99.90;;;;;;5114057;28;20372;-70
2022/06/28 06:03:15;;;;;;;8.27;2.50;;;23.10;99.90;;;;;;5113729;28;20036;-71
2022/06/28 06:05:41;;;;;;;8.90;2.67;;;;;;;;;;5113812;28;20510;-71
2022/06/28 06:08:07;;;;;;;9.17;2.90;;;;;;;;;;5113827;28;20044;-70
2022/06/28 06:10:33;;;;;;;11.43;2.80;;;26.00;91.50;;;;;;5113617;28;20113;-71
2022/06/28 06:12:59;;;;;;;8.93;3.23;;;26.50;99.90;;;;;;5113655;28;20079;-71
2022/06/28 06:15:25;;;;;;;7.53;3.00;;;;;;;;;;5113515;28;20051;-71
2022/06/28 06:17:51;;;;;;;8.43;2.20;;;;;;;;;;5113686;28;20051;-71
2022/06/28 06:20:17;;;;;;;10.20;2.83;;;;;;;;;;5095563;28;20433;-71
2022/06/28 06:22:45;;;;;;;7.33;2.77;;;;;;;;;;5113688;28;20135;-71
2022/06/28 06:25:12;;;;;;;9.23;2.80;;;;;;;;;;5113378;28;20047;-72
2022/06/28 06:27:37;;;;;;;9.93;2.97;;;29.10;91.40;;;;;;5113565;28;20083;-71
2022/06/28 06:30:05;;;;;;;11.30;2.60;;;29.70;59.30;;;;;;5113517;28;20407;-71
2022/06/28 06:32:31;;;;;;;10.32;2.92;;;29.70;62.20;;;;;;5113233;28;20055;-71
2022/06/28 06:34:57;;;;;;;8.35;2.83;;;30.00;59.50;;;;;;5113525;28;20039;-71
2022/06/28 06:37:22;;;;;;;10.00;2.90;;;29.80;58.20;;;;;;5113262;28;20047;-71
2022/06/28 06:39:48;;;;;;;10.48;3.33;;;;;;;;;;5113702;28;20097;-71
2022/06/28 06:42:15;;;;;;;11.88;2.65;;;;;;;;;;5095243;28;20479;-72
2022/06/28 06:44:40;;;;;;;9.13;2.90;;;30.90;49.90;;;;;;5113454;28;20052;-71
2022/06/28 06:47:06;;;;;;;9.05;3.13;;;31.10;65.40;;;;;;5113448;28;20066;-71
2022/06/28 06:49:32;;;;;;;8.50;2.80;;;;;;;;;;5094882;28;20410;-71
2022/06/28 06:51:58;;;;;;;11.18;3.40;;;30.30;85.20;;;;;;5095369;28;20145;-71
2022/06/28 06:54:23;;;;;;;10.95;3.05;;;30.00;52.50;;;;;;5113137;28;20040;-71
2022/06/28 06:56:49;;;;;;;12.60;3.40;;;29.50;52.00;;;;;;5113267;28;20057;-71
2022/06/28 06:59:16;;;;;;;11.50;3.10;;;;;;;;;;5113133;28;20124;-72
2022/06/28 07:01:42;;;;;;;14.00;3.47;;;;;;;;;;5113248;28;20124;-71
2022/06/28 07:04:09;;;;;;;12.27;3.47;;;27.60;90.90;;;;;;5113243;28;20040;-71
2022/06/28 07:06:35;;;;;;;11.45;3.58;;;27.50;56.20;;;;;;5112981;28;20047;-71
2022/06/28 07:09:01;;;;;;;7.43;2.30;;;27.60;56.90;;;;;;5095281;28;20058;-71
2022/06/28 07:11:28;;;;;;;8.48;3.22;;;;;;;;;;5112889;28;20051;-71
2022/06/28 07:13:54;;;;;;;8.02;2.40;;;;;;;;;;5113120;28;20094;-71
2022/06/28 07:16:20;;;;;;;10.38;2.25;;;;;;;;;;5112899;28;20052;-71
2022/06/28 07:18:46;;;;;;;8.07;2.35;;;;;;;;;;5113382;28;20052;-71
2022/06/28 07:21:12;;;;;;;8.07;2.10;;;;;;;;;;5113493;28;20044;-71
2022/06/28 07:23:38;;;;;;;8.98;2.38;;;;;;;;;;5116735;28;20059;-71
2022/06/28 07:26:05;;;;;;;11.55;2.88;;;;;;;;;;5116880;28;20043;-71
2022/06/28 07:28:31;;;;;;;11.80;3.20;;;25.10;67.70;;;;;;5116644;28;20043;-71
2022/06/28 07:30:56;;;;;;;9.43;2.73;;;25.50;75.60;;;;;;5116798;28;20051;-71
2022/06/28 07:33:22;;;;;;;6.75;2.22;;;26.30;64.20;;;;;;5116422;28;20073;-71
2022/06/28 07:35:48;;;;;;;7.87;2.37;;;26.30;84.20;;;;;;5116694;28;20043;-71
2022/06/28 07:38:14;;;;;;;9.60;2.50;;;25.80;75.60;;;;;;5098442;28;20039;-71
2022/06/28 07:40:40;;;;;;;9.93;2.60;;;;;;;;;;5098115;28;20398;-71
2022/06/28 07:43:06;;;;;;;9.23;2.50;;;23.60;97.20;;;;;;5116624;28;20430;-71
2022/06/28 07:45:36;;;;;;;10.20;2.93;;;;;;;;;;5116283;28;20048;-71
2022/06/28 07:48:03;;;;;;;8.20;2.10;;;;;;;;;;5116505;28;20052;-71
2022/06/28 07:53:12;;;;;;;13.73;2.90;;;26.10;83.50;;;;;;5116444;28;20130;-71
2022/06/28 07:55:39;;;;;;;9.30;2.43;;;;;;;;;;5116093;28;20130;-71
2022/06/28 07:58:05;;;;;;;8.70;2.47;;;29.50;46.70;;;;;;5098590;28;20142;-71
2022/06/28 08:00:31;;;;;;;10.32;2.85;;;;;;;;;;5116108;28;20043;-72
2022/06/28 08:02:57;;;;;;;9.15;2.65;;;;;;;;;;5116155;28;20043;-71
2022/06/28 08:05:23;;;;;;;9.13;3.08;;;31.30;43.10;;;;;;5115977;28;20122;-72
2022/06/28 08:07:49;;;;;;;8.43;2.78;;;;;;;;;;5116091;28;20101;-72
2022/06/28 08:10:15;;;;;;;9.82;3.10;;;31.80;44.30;;;;;;5098056;28;20083;-71
2022/06/28 08:12:41;;;;;;;10.93;3.42;;;;;;;;;;5115772;28;20431;-71
2022/06/28 08:15:08;;;;;;;8.48;2.53;;;32.50;79.20;;;;;;5116106;28;20361;-72
2022/06/28 08:17:34;;;;;;;11.07;3.15;;;31.90;42.20;;;;;;5097567;28;20043;-72
2022/06/28 08:19:59;;;;;;;9.60;3.05;;;30.60;43.10;;;;;;5081028;28;20044;-72
2022/06/28 08:22:26;;;;;;;9.80;3.45;;;;;;;;;;5115245;28;20395;-72
2022/06/28 08:24:51;;;;;;;8.98;2.90;;;30.80;79.00;;;;;;5097547;28;20442;-72
2022/06/28 08:27:17;;;;;;;9.18;2.50;;;31.40;43.70;;;;;;5116127;28;20083;-71
2022/06/28 08:29:43;;;;;;;9.30;2.83;;;31.80;41.10;;;;;;5097283;28;20411;-72
2022/06/28 08:32:09;;;;;;;8.10;2.28;;;;;;;;;;5115544;28;20036;-71
2022/06/28 08:34:36;;;;;;;11.32;2.70;;;;;;;;;;5115312;28;20043;-71
2022/06/28 08:37:02;;;;;;;9.20;2.90;;;;;;;;;;5115136;28;20088;-71
2022/06/28 08:39:28;;;;;;;7.28;2.53;;;31.80;62.40;;;;;;5115166;28;20504;-71
2022/06/28 08:41:54;;;;;;;7.68;2.50;;;31.50;39.10;;;;;;5115437;28;20079;-71
2022/06/28 08:44:19;;;;;;;10.82;2.80;;;30.90;39.50;;;;;;5115485;28;20044;-71
2022/06/28 08:46:51;;;;;;;10.18;3.00;;;30.20;39.90;;;;;;5115179;28;20233;-71
2022/06/28 08:49:25;;;;;;;9.45;2.90;;;29.30;41.10;;;;;;5115320;28;20495;-71
2022/06/28 08:51:52;;;;;;;6.57;2.30;;;29.00;42.00;;;;;;5115401;28;20051;-71
2022/06/28 08:54:21;;;;;;;7.13;2.63;;;29.10;42.70;;;;;;5115184;28;20429;-71
2022/06/28 08:56:49;;;;;;;9.27;2.30;;;;;;;;;;5097005;28;20459;-71
2022/06/28 08:59:16;;;;;;;9.38;2.65;;;;;;;;;;5114995;28;20070;-71
2022/06/28 09:01:42;;;;;;;12.35;2.33;;;;;;;;;;5114833;28;20054;-71
2022/06/28 09:04:10;;;;;;;7.68;2.38;;;28.30;80.60;;;;;;5114915;28;20051;-71
2022/06/28 09:06:37;;;;;;;6.28;2.30;;;28.10;74.30;;;;;;5096553;28;20075;-71
2022/06/28 09:09:03;;;;;;;6.57;2.20;;;27.60;45.20;;;;;;5114885;28;20079;-71
2022/06/28 09:11:51;;;;;;;8.15;2.60;;;27.30;43.80;;;;;;5096675;28;20063;-71
2022/06/28 09:14:21;;;;;;;7.78;2.08;;;;;;;;;;5114855;28;20098;-70
2022/06/28 09:16:47;;;;;;;7.93;2.60;;;26.50;80.70;;;;;;5114517;28;20054;-70
2022/06/28 09:19:13;;;;;;;11.30;2.20;;;26.00;49.00;;;;;;5114711;28;20048;-70
2022/06/28 09:21:46;;;;;;;6.82;2.38;;;;;;;;;;5114466;28;20051;-70
2022/06/28 09:24:24;;;;;;;8.48;2.42;;;;;;;;;;5114859;28;20482;-70
2022/06/28 09:26:52;;;;;;;6.30;2.17;;;;;;;;;;5114407;28;20640;-70
2022/06/28 09:29:18;;;;;;;9.77;2.50;;;;;;;;;;5114515;28;20079;-70
2022/06/28 09:31:44;;;;;;;8.32;2.38;;;;;;;;;;5096234;28;20055;-70
2022/06/28 09:34:12;;;;;;;6.55;2.00;;;;;;;;;;5114410;28;20051;-70
2022/06/28 09:36:41;;;;;;;6.73;2.00;;;;;;;;;;5114072;28;20052;-71
2022/06/28 09:39:10;;;;;;;8.93;2.53;;;;;;;;;;5114297;28;20047;-70
2022/06/28 09:41:36;;;;;;;8.80;2.43;;;25.00;49.60;;;;;;5096208;28;20131;-71
2022/06/28 09:44:07;;;;;;;7.90;2.50;;;25.00;50.20;;;;;;5113827;28;20131;-70
2022/06/28 09:46:33;;;;;;;7.60;2.00;;;24.90;51.40;;;;;;5096146;28;20396;-70
2022/06/28 09:49:04;;;;;;;9.30;2.73;;;24.90;52.50;;;;;;5114063;28;20052;-70
2022/06/28 09:51:32;;;;;;;8.40;2.23;;;25.00;52.40;;;;;;5096056;28;20047;-70
2022/06/28 09:54:04;;;;;;;8.33;2.30;;;25.10;52.00;;;;;;5096183;28;20059;-70
2022/06/28 09:56:34;;;;;;;7.63;1.87;;;25.00;52.00;;;;;;5114180;28;20048;-70
2022/06/28 09:59:01;;;;;;;8.40;2.33;;;24.80;51.90;;;;;;5114018;28;20047;-70
2022/06/28 10:01:27;;;;;;;9.20;2.10;;;24.70;52.50;;;;;;5113928;28;20497;-70
2022/06/28 10:03:53;;;;;;;6.70;1.97;;;24.60;52.50;;;;;;5113745;28;20126;-70
2022/06/28 10:06:21;;;;;;;7.50;2.17;;;24.70;51.60;;;;;;5113720;28;20051;-70
2022/06/28 10:08:47;;;;;;;7.87;1.83;;;24.70;50.70;;;;;;5113655;28;20051;-70
2022/06/28 10:11:14;;;;;;;8.13;2.10;;;24.60;51.30;;;;;;5113828;28;20055;-70
2022/06/28 10:16:33;;;;;;;7.93;1.57;;;;;;;;;;5113892;28;20051;-70
2022/06/28 10:19:01;;;;;;;5.97;1.80;;;24.40;49.60;;;;;;5095557;28;20055;-70
2022/06/28 10:21:43;;;;;;;6.97;2.03;;;24.30;49.70;;;;;;5113657;28;20093;-70
2022/06/28 10:24:09;;;;;;;11.67;2.47;;;24.30;50.00;;;;;;5113771;28;20051;-70
2022/06/28 10:26:35;;;;;;;8.00;2.00;;;;;;;;;;5113652;28;20135;-75
2022/06/28 10:29:05;;;;;;;11.90;2.60;;;24.00;50.30;;;;;;5113604;28;20495;-70
2022/06/28 10:31:35;;;;;;;8.90;2.13;;;24.00;50.60;;;;;;5095626;28;20462;-70
2022/06/28 10:34:03;;;;;;;10.40;2.57;;;23.90;50.70;;;;;;5095343;28;20085;-70
2022/06/28 10:36:46;;;;;;;9.50;2.73;;;23.80;51.60;;;;;;5095524;28;20104;-70
2022/06/28 10:39:16;;;;;;;6.60;2.30;;;23.80;51.40;;;;;;5113444;28;20062;-70
2022/06/28 10:41:48;;;;;;;7.43;1.80;;;23.80;50.50;;;;;;5113302;28;20039;-70
2022/06/28 10:44:24;;;;;;;5.27;1.83;;;23.80;51.20;;;;;;5113486;28;20047;-70
2022/06/28 10:46:52;;;;;;;7.20;1.80;;;23.80;52.30;;;;;;5113163;28;20039;-70
2022/06/28 10:49:20;;;;;;;6.73;2.23;;;23.80;51.00;;;;;;5113060;28;20108;-70
2022/06/28 10:52:05;;;;;;;6.83;1.93;;;;;;;;;;5113388;28;20058;-70
2022/06/28 10:54:31;;;;;;;4.80;1.60;;;23.50;50.20;;;;;;5113484;28;20126;-71
2022/06/28 10:56:56;;;;;;;9.40;2.20;;;23.50;50.70;;;;;;5115104;28;20498;-71
2022/06/28 10:59:38;;;;;;;7.63;1.80;;;23.50;50.70;;;;;;5117537;28;20268;-71
2022/06/28 11:02:04;;;;;;;8.33;1.87;;;23.40;52.80;;;;;;5117511;28;20043;-71
2022/06/28 11:04:30;;;;;;;6.53;2.27;;;23.50;52.20;;;;;;5117365;28;20048;-71
2022/06/28 11:07:05;;;;;;;7.90;2.30;;;23.60;52.10;;;;;;5117068;28;20043;-71
2022/06/28 11:09:48;;;;;;;9.40;2.47;;;23.50;51.60;;;;;;5117348;28;20043;-71
2022/06/28 11:12:15;;;;;;;6.77;1.90;;;23.40;51.70;;;;;;5117421;28;20388;-71
2022/06/28 11:14:46;;;;;;;5.83;1.77;;;23.40;52.30;;;;;;5116917;28;20043;-71
2022/06/28 11:17:16;;;;;;;6.07;1.77;;;23.30;84.50;;;;;;5099393;28;20051;-71
2022/06/28 11:19:50;;;;;;;7.60;2.33;;;23.20;53.10;;;;;;5098783;28;20495;-71
2022/06/28 11:22:20;;;;;;;10.00;2.67;;;23.30;54.10;;;;;;5117147;28;20040;-71
2022/06/28 11:24:47;;;;;;;6.63;2.10;;;23.40;54.10;;;;;;5116764;28;20048;-71
2022/06/28 11:27:22;;;;;;;8.17;2.23;;;23.40;54.60;;;;;;5116514;28;20491;-71
2022/06/28 11:30:01;;;;;;;12.27;2.30;;;23.40;54.10;;;;;;5116718;28;20059;-71
2022/06/28 11:32:39;;;;;;;8.00;1.80;;;23.30;54.60;;;;;;5117035;28;20082;-71
2022/06/28 11:35:09;;;;;;;7.47;1.87;;;23.20;55.10;;;;;;5116594;28;20060;-71
2022/06/28 11:37:53;;;;;;;5.90;1.77;;;23.20;55.00;;;;;;5116665;28;20051;-71
2022/06/28 11:40:22;;;;;;;6.35;1.90;;;23.20;55.10;;;;;;5116669;28;20047;-71
2022/06/28 11:42:59;;;;;;;7.90;2.03;;;23.30;55.30;;;;;;5116370;28;20094;-71
2022/06/28 11:45:30;;;;;;;7.23;2.30;;;23.30;55.30;;;;;;5098415;28;20040;-71
2022/06/28 11:47:56;;;;;;;4.43;1.50;;;23.40;55.30;;;;;;5098221;28;20056;-71
2022/06/28 11:50:22;;;;;;;6.73;1.73;;;23.40;54.50;;;;;;5116444;28;20047;-71
2022/06/28 11:52:52;;;;;;;6.97;1.90;;;23.30;54.40;;;;;;5097997;28;20043;-71
2022/06/28 11:55:19;;;;;;;6.50;2.10;;;23.30;55.20;;;;;;5116464;28;20076;-71
2022/06/28 11:57:45;;;;;;;8.37;1.97;;;23.30;55.90;;;;;;5116109;28;20051;-72
2022/06/28 12:00:14;;;;;;;9.13;1.97;;;23.30;55.70;;;;;;5116283;28;20051;-71
2022/06/28 12:02:45;;;;;;;6.60;2.00;;;23.30;54.80;;;;;;5116196;28;20123;-71
2022/06/28 12:05:11;;;;;;;6.20;1.90;;;23.30;54.30;;;;;;5081584;28;20051;-71
2022/06/28 12:07:40;;;;;;;5.77;2.20;;;23.30;54.30;;;;;;5098063;28;20387;-71
2022/06/28 12:10:19;;;;;;;7.50;1.90;;;23.30;53.80;;;;;;5115826;28;20051;-71
2022/06/28 12:12:44;;;;;;;8.83;2.33;;;23.30;54.50;;;;;;5115678;28;20527;-71
2022/06/28 12:15:10;;;;;;;8.03;2.27;;;23.30;54.30;;;;;;5115783;28;20047;-71
2022/06/28 12:17:47;;;;;;;6.90;1.93;;;23.40;54.40;;;;;;5097676;28;20047;-71
2022/06/28 12:20:15;;;;;;;9.43;2.00;;;23.40;54.00;;;;;;5098307;28;20039;-71
2022/06/28 12:22:41;;;;;;;7.13;1.90;;;23.40;53.00;;;;;;5115911;28;20047;-71
2022/06/28 12:25:11;;;;;;;5.50;1.77;;;23.40;53.00;;;;;;5115568;28;20052;-71
2022/06/28 12:27:37;;;;;;;5.80;1.83;;;23.40;53.00;;;;;;5115666;28;20098;-71
2022/06/28 12:30:06;;;;;;;5.67;1.50;;;23.40;53.10;;;;;;5115460;28;20039;-71
2022/06/28 12:32:32;;;;;;;6.20;1.70;;;23.30;53.30;;;;;;5115685;28;20520;-71
2022/06/28 12:35:06;;;;;;;7.67;2.23;;;23.30;53.90;;;;;;5115307;28;20505;-71
2022/06/28 12:37:33;;;;;;;7.63;1.92;;;23.30;53.90;;;;;;5115587;28;20096;-71
2022/06/28 12:39:59;;;;;;;7.23;1.83;;;23.30;53.50;;;;;;5115208;28;20043;-71
2022/06/28 12:42:30;;;;;;;5.87;1.77;;;23.30;54.10;;;;;;5115375;28;20126;-71
2022/06/28 12:45:00;;;;;;;7.07;1.60;;;23.30;54.00;;;;;;5115263;28;20051;-71
2022/06/28 12:47:30;;;;;;;3.60;1.40;;;23.40;53.80;;;;;;5097538;28;20104;-70
2022/06/28 12:49:59;;;;;;;5.03;1.43;;;23.40;53.70;;;;;;5096858;28;20112;-71
2022/06/28 12:52:26;;;;;;;5.47;1.30;;;23.40;54.20;;;;;;5096784;28;20062;-71
2022/06/28 12:54:52;;;;;;;7.47;1.97;;;23.50;54.00;;;;;;5115058;28;20048;-71
2022/06/28 12:57:17;;;;;;;6.37;1.70;;;23.60;53.80;;;;;;5115370;28;20051;-71
2022/06/28 12:59:43;;;;;;;5.00;1.40;;;23.60;52.80;;;;;;5097246;28;20043;-71
2022/06/28 13:02:09;;;;;;;5.30;1.37;;;23.60;53.00;;;;;;5114800;28;20062;-71
2022/06/28 13:04:35;;;;;;;5.63;1.60;;;23.50;52.90;;;;;;5115150;28;20054;-71
2022/06/28 13:07:01;;;;;;;6.67;1.97;;;23.50;52.70;;;;;;5096913;28;20196;-71
2022/06/28 13:09:26;;;;;;;4.90;1.40;;;23.50;52.70;;;;;;5114893;28;20051;-71
2022/06/28 13:11:52;;;;;;;5.97;2.10;;;23.40;52.50;;;;;;5096668;28;20044;-73